Terminal Aerodrome Forecast
Issued by NWS

Home | Current Version | Previous Version | Graphics & Text | Print | Product List | Glossary On
Versions: 1 2 3 4 5 6 7 8 9 10 11 12 13 14 15 16 17 18
000
FTUS43 KMPX 150500
TAFRWF
TAF
KRWF 150524Z 1506/1606 32005KT P6SM SKC
     FM151800 15010G16KT P6SM BKN150
     FM160000 13014KT P6SM OVC100=

USA.gov is the U.S. government's official web portal to all federal, state and local government web resources and services.